Time;durP1;ratioP1;P1;durP2;ratioP2;P2;SDS_P1;SDS_P2;PMS_P1;PMS_P2;Temp;Humidity;BMP_temperature;BMP_pressure;BME280_temperature;BME280_humidity;BME280_pressure;Samples;Min_cycle;Max_cycle;Signal;HPM_P1;HPM_P2
2022/06/01 04:02:23;;;;;;;1.50;1.40;;;16.10;96.30;;;;;;5052434;23;20494;-78
2022/06/01 04:04:48;;;;;;;3.20;2.90;;;16.60;96.30;;;;;;4954200;29;20415;-78
2022/06/01 04:07:13;;;;;;;1.70;1.53;;;17.10;95.70;;;;;;4954601;29;20670;-78
2022/06/01 04:09:39;;;;;;;2.83;2.30;;;17.20;95.90;;;;;;4954461;29;20171;-79
2022/06/01 04:12:06;;;;;;;1.93;1.47;;;17.90;93.70;;;;;;4956184;28;20245;-79
2022/06/01 04:14:32;;;;;;;1.80;1.20;;;18.30;93.40;;;;;;4956072;29;20186;-78
2022/06/01 04:16:57;;;;;;;2.90;1.67;;;18.40;91.80;;;;;;4964255;29;20911;-78
2022/06/01 04:19:23;;;;;;;1.73;1.30;;;18.50;93.10;;;;;;4963885;29;20187;-80
2022/06/01 04:31:32;;;;;;;1.60;1.50;;;19.40;87.30;;;;;;4903322;29;20481;-80
2022/06/01 04:33:58;;;;;;;2.50;1.37;;;19.80;85.80;;;;;;4933259;29;20986;-79
2022/06/01 04:36:23;;;;;;;1.70;1.40;;;19.80;86.20;;;;;;4947231;29;20443;-80
2022/06/01 04:38:49;;;;;;;2.80;1.27;;;20.10;85.80;;;;;;4941083;29;20260;-78
2022/06/01 04:41:14;;;;;;;2.10;1.30;;;20.70;84.50;;;;;;4934337;29;20565;-79
2022/06/01 04:43:40;;;;;;;1.73;1.27;;;20.50;84.20;;;;;;4934455;29;20640;-78
2022/06/01 04:46:05;;;;;;;2.70;1.30;;;20.40;83.10;;;;;;4937907;29;20616;-78
2022/06/01 04:48:31;;;;;;;2.60;1.50;;;20.50;84.60;;;;;;4920013;29;20183;-78
2022/06/01 04:50:58;;;;;;;3.63;1.40;;;21.20;83.40;;;;;;4937974;29;20202;-80
2022/06/01 04:53:24;;;;;;;5.73;1.47;;;22.10;78.70;;;;;;4941626;29;20305;-78
2022/06/01 04:55:49;;;;;;;1.50;1.17;;;23.10;78.40;;;;;;4956639;29;20505;-77
2022/06/01 04:58:15;;;;;;;1.40;1.20;;;23.80;76.50;;;;;;4956252;29;20580;-79
2022/06/01 05:00:42;;;;;;;1.50;1.20;;;24.10;75.60;;;;;;4956914;29;20205;-78
2022/06/01 05:03:08;;;;;;;1.70;1.20;;;24.80;74.40;;;;;;4956801;29;20166;-78
2022/06/01 05:05:39;;;;;;;1.40;1.10;;;25.00;70.70;;;;;;4939305;29;20436;-78
2022/06/01 05:08:06;;;;;;;6.83;1.20;;;24.70;71.60;;;;;;4954824;29;20182;-78
2022/06/01 05:10:33;;;;;;;2.37;1.43;;;24.10;72.50;;;;;;4945186;29;20439;-78
2022/06/01 05:12:58;;;;;;;2.23;1.30;;;24.40;73.00;;;;;;4954812;29;20446;-78
2022/06/01 05:15:24;;;;;;;1.60;1.10;;;24.00;75.10;;;;;;4944178;29;20954;-78
2022/06/01 05:17:49;;;;;;;2.80;1.20;;;24.40;73.80;;;;;;4943446;29;20170;-78
2022/06/01 05:20:15;;;;;;;2.10;1.53;;;24.80;72.00;;;;;;4942361;29;20229;-77
2022/06/01 05:22:41;;;;;;;6.10;1.17;;;24.50;73.00;;;;;;4937247;29;20185;-78
2022/06/01 05:25:07;;;;;;;1.70;1.23;;;24.60;71.40;;;;;;4937171;29;20191;-78
2022/06/01 05:27:33;;;;;;;3.53;1.70;;;24.70;73.00;;;;;;4936718;29;20209;-78
2022/06/01 05:30:00;;;;;;;1.30;1.20;;;24.80;70.90;;;;;;4956242;29;20505;-78
2022/06/01 05:32:25;;;;;;;6.30;1.90;;;24.20;71.80;;;;;;4952945;29;20536;-78
2022/06/01 05:34:51;;;;;;;2.43;1.23;;;24.70;71.10;;;;;;4937135;29;20849;-78
2022/06/01 05:37:16;;;;;;;2.37;1.50;;;24.10;72.50;;;;;;4937037;29;20669;-78
2022/06/01 05:39:42;;;;;;;2.83;1.10;;;23.90;74.00;;;;;;4936619;29;20194;-79
2022/06/01 05:42:07;;;;;;;4.67;1.30;;;24.60;72.40;;;;;;4931219;29;20688;-78
2022/06/01 05:44:33;;;;;;;1.47;1.30;;;24.80;72.40;;;;;;4900751;29;20179;-78
2022/06/01 05:47:03;;;;;;;3.30;1.40;;;25.20;72.00;;;;;;4919836;29;20521;-78
2022/06/01 05:49:29;;;;;;;1.93;1.37;;;25.40;70.90;;;;;;4921471;29;20528;-78
2022/06/01 05:51:55;;;;;;;2.00;1.67;;;24.80;72.30;;;;;;4917102;29;20451;-78
2022/06/01 05:54:21;;;;;;;2.00;1.43;;;23.60;73.40;;;;;;4929232;29;20408;-78
2022/06/01 05:56:46;;;;;;;1.60;1.50;;;22.80;76.60;;;;;;4926224;29;20701;-79
2022/06/01 05:59:12;;;;;;;2.50;1.40;;;21.30;78.00;;;;;;4912049;29;20199;-77
2022/06/01 06:01:38;;;;;;;2.43;1.50;;;21.10;81.30;;;;;;4920939;29;20211;-78
2022/06/01 06:04:05;;;;;;;2.43;1.60;;;22.40;77.30;;;;;;4934223;29;20780;-78
2022/06/01 06:06:30;;;;;;;4.50;1.70;;;23.30;77.20;;;;;;4921989;29;20224;-78
2022/06/01 06:09:02;;;;;;;2.13;1.40;;;23.70;74.60;;;;;;4921133;29;20431;-79
2022/06/01 06:11:31;;;;;;;2.73;1.73;;;24.60;74.70;;;;;;4941214;29;20204;-78
2022/06/01 06:14:00;;;;;;;1.97;1.50;;;25.20;74.60;;;;;;4926962;29;20411;-79
2022/06/01 06:16:29;;;;;;;2.57;1.53;;;24.70;74.20;;;;;;4923649;29;20435;-79
2022/06/01 06:18:57;;;;;;;6.93;1.67;;;23.50;74.70;;;;;;4918236;29;20428;-78
2022/06/01 06:21:24;;;;;;;3.40;1.70;;;21.90;79.00;;;;;;4925057;29;20450;-80
2022/06/01 06:23:49;;;;;;;2.10;1.50;;;22.50;82.30;;;;;;4920550;29;20830;-79
2022/06/01 06:26:15;;;;;;;7.97;1.63;;;23.00;81.50;;;;;;4919469;29;20530;-78
2022/06/01 06:28:40;;;;;;;2.40;1.27;;;23.40;74.90;;;;;;4919012;29;20545;-78
2022/06/01 06:31:06;;;;;;;1.60;1.37;;;23.20;79.20;;;;;;4901771;29;20202;-79
2022/06/01 06:33:32;;;;;;;3.57;1.30;;;23.60;78.20;;;;;;4918773;29;20179;-79
2022/06/01 06:36:04;;;;;;;7.30;1.77;;;24.60;76.30;;;;;;4918899;29;20180;-79
2022/06/01 06:38:31;;;;;;;1.67;1.53;;;24.10;73.50;;;;;;4919406;29;20172;-79
2022/06/01 06:40:59;;;;;;;6.63;1.50;;;23.50;77.70;;;;;;4901128;29;20980;-78
2022/06/01 06:43:26;;;;;;;4.80;1.50;;;24.30;75.50;;;;;;4904037;29;20424;-79
2022/06/01 06:45:56;;;;;;;3.93;1.43;;;24.60;75.00;;;;;;4933998;29;20946;-79
2022/06/01 06:48:22;;;;;;;1.97;1.40;;;25.30;73.50;;;;;;4938013;29;20411;-79
2022/06/01 06:50:48;;;;;;;3.33;1.30;;;25.60;71.10;;;;;;4921809;29;20439;-78
2022/06/01 06:53:13;;;;;;;2.47;1.50;;;26.20;73.00;;;;;;4921447;29;20183;-79
2022/06/01 06:55:39;;;;;;;2.67;1.27;;;26.60;67.10;;;;;;4938997;29;20190;-78
2022/06/01 06:58:08;;;;;;;2.30;1.40;;;26.50;69.60;;;;;;4939230;29;20190;-78
2022/06/01 07:00:34;;;;;;;6.00;1.47;;;26.50;69.90;;;;;;4939547;29;20195;-78
2022/06/01 07:02:59;;;;;;;3.37;1.47;;;26.30;70.80;;;;;;4938524;29;20441;-78
2022/06/01 07:06:10;;;;;;;3.27;1.57;;;26.20;70.10;;;;;;4922341;29;20235;-79
2022/06/01 07:08:10;;;;;;;5.10;1.47;;;26.50;72.70;;;;;;4930158;29;20194;-79
2022/06/01 07:10:36;;;;;;;1.83;1.27;;;26.20;71.30;;;;;;4939612;29;20449;-79
2022/06/01 07:13:01;;;;;;;1.70;1.37;;;27.10;70.00;;;;;;4939459;29;20170;-78
2022/06/01 07:15:27;;;;;;;5.83;1.57;;;27.50;69.60;;;;;;4940052;29;20218;-79
2022/06/01 07:17:52;;;;;;;2.47;1.40;;;26.60;67.00;;;;;;4939153;29;20179;-78
2022/06/01 07:20:18;;;;;;;2.37;1.37;;;25.60;70.50;;;;;;4933581;29;20184;-77
2022/06/01 07:22:44;;;;;;;2.50;1.30;;;27.10;69.20;;;;;;4920933;29;20196;-78
2022/06/01 07:25:09;;;;;;;1.63;1.40;;;27.50;65.70;;;;;;4920592;29;20404;-79
2022/06/01 07:27:36;;;;;;;2.63;1.60;;;27.40;65.20;;;;;;4919126;29;20267;-78
2022/06/01 07:30:06;;;;;;;1.90;1.40;;;27.90;67.60;;;;;;4918695;29;20172;-79
2022/06/01 07:32:32;;;;;;;2.10;1.60;;;27.20;65.60;;;;;;4921564;29;20509;-79
2022/06/01 07:34:57;;;;;;;3.33;1.30;;;27.00;65.30;;;;;;4936633;29;20423;-79
2022/06/01 07:43:07;;;;;;;2.77;1.50;;;27.80;68.20;;;;;;4939167;29;20921;-79
2022/06/01 07:45:38;;;;;;;2.30;1.50;;;27.50;66.70;;;;;;4937602;29;20502;-79
2022/06/01 07:48:06;;;;;;;6.00;1.60;;;27.50;71.90;;;;;;4938612;29;20454;-79
2022/06/01 07:50:32;;;;;;;7.50;1.70;;;27.70;71.30;;;;;;4936309;29;20546;-78
2022/06/01 07:52:58;;;;;;;1.80;1.60;;;28.10;70.00;;;;;;4936502;29;20423;-79
2022/06/01 07:55:24;;;;;;;2.20;1.40;;;28.50;68.00;;;;;;4935209;29;20429;-78
2022/06/01 07:57:50;;;;;;;1.60;1.40;;;28.20;67.30;;;;;;4935057;29;20426;-79
2022/06/01 08:00:16;;;;;;;2.50;1.40;;;28.10;69.60;;;;;;4936902;29;20179;-79
2022/06/01 08:02:42;;;;;;;2.40;1.43;;;28.60;69.60;;;;;;4934938;29;20442;-79
2022/06/01 08:05:09;;;;;;;1.73;1.53;;;27.10;67.70;;;;;;4937384;29;20191;-79
2022/06/01 08:07:35;;;;;;;3.47;1.30;;;27.10;70.60;;;;;;4936327;29;20190;-81
2022/06/01 08:10:02;;;;;;;4.87;1.47;;;28.00;67.90;;;;;;4935250;29;20466;-80
2022/06/01 08:15:12;;;;;;;6.00;1.80;;;26.80;71.00;;;;;;4934977;29;20883;-78
2022/06/01 08:17:38;;;;;;;1.97;1.40;;;26.50;70.30;;;;;;4934515;29;20438;-78
2022/06/01 08:20:04;;;;;;;2.27;1.47;;;26.60;72.60;;;;;;4936906;29;20274;-79
2022/06/01 08:22:31;;;;;;;4.43;1.93;;;25.70;71.50;;;;;;4938385;29;20549;-78
2022/06/01 08:24:56;;;;;;;2.23;1.40;;;25.40;73.90;;;;;;4938474;29;20259;-79
2022/06/01 08:27:22;;;;;;;8.53;1.30;;;26.50;73.80;;;;;;4938151;29;20548;-79
2022/06/01 08:29:47;;;;;;;2.60;1.17;;;26.10;73.30;;;;;;4938152;29;20258;-79
2022/06/01 08:32:13;;;;;;;5.00;1.33;;;25.50;72.80;;;;;;4938195;29;20199;-79
2022/06/01 08:34:39;;;;;;;4.20;1.67;;;24.90;75.00;;;;;;4938851;29;20203;-79
2022/06/01 08:37:05;;;;;;;2.00;1.30;;;23.90;77.30;;;;;;4938299;29;20203;-78
2022/06/01 08:39:31;;;;;;;1.93;1.50;;;23.90;78.40;;;;;;4938120;29;20231;-77
2022/06/01 08:41:59;;;;;;;1.53;1.43;;;23.50;78.90;;;;;;4938254;29;20442;-77
2022/06/01 08:44:31;;;;;;;2.50;1.53;;;23.60;83.40;;;;;;4938238;29;20419;-78
2022/06/01 08:47:02;;;;;;;8.10;1.90;;;22.30;83.40;;;;;;4938156;29;20840;-77
2022/06/01 08:49:30;;;;;;;2.40;1.40;;;21.60;82.80;;;;;;4937971;29;20431;-77
2022/06/01 08:51:56;;;;;;;2.50;2.10;;;21.80;82.60;;;;;;4938049;29;20439;-78
2022/06/01 08:54:22;;;;;;;5.60;1.73;;;20.70;86.40;;;;;;4938083;29;20447;-77
2022/06/01 08:56:51;;;;;;;2.47;1.30;;;20.70;85.60;;;;;;4937621;29;20226;-77
2022/06/01 08:59:30;;;;;;;2.80;1.23;;;20.60;87.50;;;;;;4937620;29;20818;-78
2022/06/01 09:02:11;;;;;;;1.77;1.43;;;20.90;87.20;;;;;;4937641;29;20434;-77
2022/06/01 09:04:56;;;;;;;2.90;1.43;;;21.60;84.40;;;;;;4937758;29;20411;-78
2022/06/01 09:07:30;;;;;;;1.97;1.50;;;22.00;87.00;;;;;;4937596;29;20817;-78
2022/06/01 09:10:07;;;;;;;3.80;1.60;;;21.80;83.50;;;;;;4937585;29;20411;-78
2022/06/01 09:12:35;;;;;;;2.43;1.30;;;18.00;88.30;;;;;;4935992;29;20466;-77
2022/06/01 09:15:12;;;;;;;4.40;1.47;;;17.40;93.40;;;;;;4937518;29;20448;-77
2022/06/01 09:17:39;;;;;;;1.67;1.57;;;17.40;93.60;;;;;;4937372;29;20400;-77
2022/06/01 09:22:53;;;;;;;3.73;2.20;;;17.50;94.90;;;;;;4937751;29;20923;-77
2022/06/01 09:25:25;;;;;;;4.63;1.83;;;17.80;96.30;;;;;;4937456;29;20416;-78
2022/06/01 09:27:59;;;;;;;2.70;1.97;;;17.80;96.30;;;;;;4937274;29;20474;-78
2022/06/01 09:30:26;;;;;;;2.00;1.77;;;17.70;96.30;;;;;;4936219;29;20407;-78
2022/06/01 09:33:20;;;;;;;2.50;1.90;;;17.80;96.30;;;;;;4932322;29;20443;-78
2022/06/01 09:35:59;;;;;;;5.50;2.37;;;17.40;96.30;;;;;;4937186;29;20415;-77
2022/06/01 09:38:48;;;;;;;6.70;1.70;;;17.30;94.00;;;;;;4936661;29;20419;-77
2022/06/01 09:41:19;;;;;;;1.80;1.70;;;17.40;96.30;;;;;;4930644;29;20529;-77
2022/06/01 09:43:59;;;;;;;2.20;1.50;;;17.90;91.90;;;;;;4926742;29;20931;-78
2022/06/01 09:46:35;;;;;;;7.10;1.97;;;18.80;90.20;;;;;;4917907;29;20468;-79
2022/06/01 09:49:24;;;;;;;3.20;1.63;;;19.60;86.50;;;;;;4936564;29;20411;-77
2022/06/01 09:51:56;;;;;;;3.17;2.27;;;20.80;84.00;;;;;;4936566;29;20435;-78
2022/06/01 09:54:22;;;;;;;2.67;1.67;;;21.20;86.50;;;;;;4936799;29;20403;-78
2022/06/01 09:56:48;;;;;;;2.70;1.50;;;21.30;81.10;;;;;;4936748;29;20911;-78
2022/06/01 10:08:14;;;;;;;2.03;1.63;;;21.40;80.60;;;;;;4917381;29;20496;-78
2022/06/01 10:10:55;;;;;;;2.60;1.57;;;20.60;83.20;;;;;;4917382;29;20436;-78
2022/06/01 10:13:35;;;;;;;1.80;1.70;;;20.30;83.80;;;;;;4917478;29;20968;-78
2022/06/01 10:16:19;;;;;;;2.37;1.93;;;20.40;86.30;;;;;;4926731;29;20428;-79
2022/06/01 10:18:46;;;;;;;2.47;1.73;;;20.40;82.40;;;;;;4919035;29;20420;-79
2022/06/01 10:42:21;;;;;;;2.50;1.60;;;21.40;79.90;;;;;;5572868;23;20485;-77
2022/06/01 10:44:56;;;;;;;2.53;1.70;;;21.80;79.90;;;;;;4974380;28;20485;-77
2022/06/01 10:47:34;;;;;;;2.80;1.63;;;21.50;82.90;;;;;;4974133;28;20441;-77
2022/06/01 10:50:14;;;;;;;6.97;1.90;;;22.50;83.50;;;;;;4937767;29;20434;-78
2022/06/01 10:52:54;;;;;;;1.90;1.67;;;22.50;87.10;;;;;;4954946;29;20411;-78
2022/06/01 10:55:31;;;;;;;2.13;1.90;;;23.00;84.00;;;;;;4954913;29;20391;-79
2022/06/01 10:57:59;;;;;;;1.90;1.67;;;22.40;80.60;;;;;;4954567;29;20417;-78
2022/06/01 11:00:41;;;;;;;2.40;1.60;;;21.90;82.00;;;;;;4954663;28;20842;-78
2022/06/01 11:03:31;;;;;;;2.90;1.80;;;22.40;87.40;;;;;;4954689;29;20843;-82
2022/06/01 11:06:26;;;;;;;3.37;1.50;;;23.50;80.20;;;;;;4954630;29;20399;-78
2022/06/01 11:09:22;;;;;;;2.00;1.40;;;23.70;80.20;;;;;;4954525;29;21072;-77
2022/06/01 11:11:57;;;;;;;2.53;1.37;;;24.00;83.00;;;;;;4937248;29;20529;-80
2022/06/01 11:14:33;;;;;;;4.43;1.67;;;23.30;76.90;;;;;;4953397;29;20418;-78
2022/06/01 11:17:08;;;;;;;1.53;1.40;;;23.20;83.90;;;;;;4954441;29;20425;-79
2022/06/01 11:20:10;;;;;;;3.33;1.80;;;23.60;78.20;;;;;;4954275;29;20441;-79
2022/06/01 11:22:56;;;;;;;1.83;1.67;;;23.50;80.80;;;;;;4954473;28;20517;-77
2022/06/01 11:25:37;;;;;;;3.13;1.57;;;23.90;81.40;;;;;;4954427;29;20942;-80
2022/06/01 11:28:32;;;;;;;1.70;1.40;;;24.10;81.70;;;;;;4954176;29;20859;-78
2022/06/01 11:31:18;;;;;;;5.70;1.90;;;23.60;81.60;;;;;;4954276;28;20438;-77
2022/06/01 11:33:52;;;;;;;2.00;1.80;;;23.30;82.20;;;;;;4954352;29;20394;-78
2022/06/01 11:37:00;;;;;;;3.90;1.90;;;23.70;77.10;;;;;;4954431;29;20401;-77
2022/06/01 11:39:37;;;;;;;3.23;1.70;;;24.20;76.00;;;;;;4876065;29;20436;-78
2022/06/01 11:42:31;;;;;;;5.00;1.60;;;23.50;76.50;;;;;;4926628;29;20522;-79
2022/06/01 11:45:06;;;;;;;8.60;1.60;;;23.40;84.70;;;;;;4931267;29;21012;-80
2022/06/01 11:47:41;;;;;;;6.10;1.80;;;23.00;80.30;;;;;;4953839;29;20442;-76
2022/06/01 11:50:17;;;;;;;5.20;1.83;;;22.20;79.60;;;;;;4953282;29;21038;-80
2022/06/01 11:53:01;;;;;;;2.63;1.70;;;21.10;82.50;;;;;;4972074;28;20413;-78
2022/06/01 11:55:38;;;;;;;3.77;1.90;;;20.20;80.40;;;;;;4972858;28;20924;-77
2022/06/01 11:58:03;;;;;;;1.53;1.30;;;20.40;83.90;;;;;;4973072;28;20417;-78
2022/06/01 12:00:39;;;;;;;2.87;1.27;;;20.80;86.20;;;;;;4960808;28;20452;-77
2022/06/01 12:03:16;;;;;;;2.70;1.43;;;21.30;85.60;;;;;;4936680;29;20212;-78
2022/06/01 12:06:03;;;;;;;2.73;1.47;;;21.50;78.90;;;;;;4953813;28;20493;-78
2022/06/01 12:08:37;;;;;;;5.03;1.50;;;21.20;78.50;;;;;;4971962;28;20416;-78
2022/06/01 12:11:06;;;;;;;3.27;1.30;;;22.60;87.10;;;;;;4973098;28;20786;-77
2022/06/01 12:13:38;;;;;;;3.77;1.30;;;23.60;81.20;;;;;;4973207;28;20500;-78
2022/06/01 12:16:04;;;;;;;4.20;1.27;;;24.00;74.40;;;;;;4973086;28;20405;-79
2022/06/01 12:18:31;;;;;;;2.00;1.50;;;23.80;76.60;;;;;;4970283;28;20397;-78
2022/06/01 12:21:21;;;;;;;1.40;1.10;;;23.80;80.70;;;;;;4953768;28;20249;-77
2022/06/01 12:28:31;;;;;;;1.43;1.30;;;23.80;74.80;;;;;;4954022;29;20441;-77
2022/06/01 12:29:59;;;;;;;1.90;1.30;;;23.70;75.90;;;;;;4953856;29;20450;-77
2022/06/01 12:32:25;;;;;;;5.60;1.73;;;23.50;76.50;;;;;;4953915;28;20430;-79
2022/06/01 12:35:23;;;;;;;1.73;1.33;;;23.10;76.20;;;;;;4953964;29;20896;-79
2022/06/01 12:37:57;;;;;;;2.10;1.40;;;23.40;82.20;;;;;;4901363;29;20473;-77
2022/06/01 12:40:24;;;;;;;1.93;1.20;;;24.10;73.10;;;;;;4969692;28;20407;-79
2022/06/01 12:42:52;;;;;;;2.20;1.33;;;24.30;78.70;;;;;;4954740;28;20453;-77
2022/06/01 12:45:20;;;;;;;3.10;1.07;;;24.40;82.70;;;;;;4936664;29;20433;-77
2022/06/01 12:47:55;;;;;;;2.70;1.30;;;24.60;77.60;;;;;;4953768;29;20819;-77
2022/06/01 12:50:22;;;;;;;9.30;1.47;;;23.90;75.70;;;;;;4953908;29;20399;-77
2022/06/01 12:53:06;;;;;;;7.07;1.70;;;23.20;76.90;;;;;;4953786;29;20465;-77
2022/06/01 12:55:32;;;;;;;3.90;1.30;;;22.30;74.70;;;;;;4953651;29;20406;-77
2022/06/01 12:58:00;;;;;;;1.83;1.10;;;21.70;76.80;;;;;;4936507;29;20770;-78
2022/06/01 13:00:29;;;;;;;2.20;1.60;;;21.70;78.50;;;;;;4953699;29;20665;-77
2022/06/01 13:02:55;;;;;;;2.33;1.20;;;22.10;82.60;;;;;;4954775;29;20423;-78
2022/06/01 13:05:24;;;;;;;3.97;1.57;;;22.20;80.70;;;;;;4956071;28;20442;-77
2022/06/01 13:07:58;;;;;;;5.20;1.63;;;22.10;78.70;;;;;;4958890;29;20199;-77
2022/06/01 13:10:26;;;;;;;12.23;2.37;;;22.40;81.70;;;;;;4959524;29;20415;-78
2022/06/01 13:13:07;;;;;;;5.27;2.13;;;22.30;78.20;;;;;;4959192;29;20978;-78
2022/06/01 13:15:34;;;;;;;11.70;2.80;;;22.80;83.80;;;;;;4958887;29;20406;-78
2022/06/01 13:18:03;;;;;;;7.93;3.70;;;22.70;80.50;;;;;;4961241;28;20434;-78
2022/06/01 13:20:36;;;;;;;3.07;1.33;;;22.80;84.10;;;;;;4957784;29;20446;-78
2022/06/01 13:23:05;;;;;;;6.10;1.43;;;22.50;79.00;;;;;;4957950;29;20406;-78
2022/06/01 13:25:33;;;;;;;5.77;1.80;;;22.50;84.30;;;;;;4958303;29;20414;-77
2022/06/01 13:27:59;;;;;;;1.97;1.40;;;23.20;81.00;;;;;;4971495;28;20469;-78
2022/06/01 13:30:29;;;;;;;6.77;1.70;;;23.40;80.60;;;;;;4977829;28;20440;-78
2022/06/01 13:32:56;;;;;;;2.87;1.20;;;23.90;77.60;;;;;;4977979;28;20241;-78
2022/06/01 13:35:24;;;;;;;1.80;1.13;;;23.80;78.50;;;;;;4978095;28;20406;-78
2022/06/01 13:37:54;;;;;;;5.33;2.00;;;23.60;76.60;;;;;;4977643;28;20817;-78
2022/06/01 13:40:28;;;;;;;2.90;1.37;;;23.50;83.10;;;;;;4970422;28;20430;-77
2022/06/01 13:43:14;;;;;;;5.13;1.80;;;23.30;78.10;;;;;;4958684;29;20457;-77
2022/06/01 13:45:59;;;;;;;3.00;1.30;;;23.50;76.10;;;;;;4958847;29;20418;-78
2022/06/01 13:48:47;;;;;;;2.00;1.30;;;23.50;78.00;;;;;;4973926;28;21026;-78
2022/06/01 13:51:32;;;;;;;4.23;1.67;;;24.10;77.30;;;;;;4977669;28;20473;-78
2022/06/01 13:53:59;;;;;;;7.27;1.57;;;24.10;76.60;;;;;;4977492;28;20827;-77
2022/06/01 13:56:40;;;;;;;2.93;1.50;;;24.40;73.60;;;;;;4977870;28;20421;-77
2022/06/01 13:59:12;;;;;;;1.70;1.40;;;23.80;76.20;;;;;;4977913;28;20507;-77
2022/06/01 14:01:45;;;;;;;3.43;1.60;;;24.30;76.40;;;;;;4977399;28;20485;-77
2022/06/01 14:04:48;;;;;;;3.60;1.23;;;24.10;74.60;;;;;;4977828;28;20428;-78
2022/06/01 14:07:16;;;;;;;3.80;1.60;;;24.40;80.50;;;;;;4943824;28;20465;-79
2022/06/01 14:09:58;;;;;;;4.63;1.53;;;24.60;76.40;;;;;;4975417;28;20906;-77
2022/06/01 14:12:23;;;;;;;2.63;1.40;;;23.50;75.20;;;;;;4974931;28;20429;-75
2022/06/01 14:14:51;;;;;;;5.87;1.73;;;23.00;77.30;;;;;;4974911;28;20421;-76
2022/06/01 14:17:19;;;;;;;2.70;1.60;;;22.70;78.60;;;;;;4974131;28;20178;-77
2022/06/01 14:19:44;;;;;;;1.97;1.60;;;22.20;78.70;;;;;;4974698;28;20476;-77
2022/06/01 14:22:11;;;;;;;3.80;1.90;;;22.00;79.40;;;;;;4974687;28;20434;-77
2022/06/01 14:30:08;;;;;;;4.90;1.53;;;21.90;83.90;;;;;;4955407;29;20429;-77
2022/06/01 14:32:34;;;;;;;2.20;1.53;;;21.70;87.40;;;;;;4954795;28;20466;-77
2022/06/01 14:35:00;;;;;;;3.70;1.50;;;21.30;89.90;;;;;;4937826;29;20497;-76
2022/06/01 14:37:26;;;;;;;2.20;1.57;;;20.60;88.70;;;;;;4937828;29;20665;-80
2022/06/01 14:39:51;;;;;;;2.30;1.83;;;20.20;90.90;;;;;;4955724;29;20987;-78
2022/06/01 14:42:17;;;;;;;3.40;1.70;;;19.70;92.30;;;;;;4937805;29;20229;-77
2022/06/01 14:44:43;;;;;;;1.30;1.20;;;19.70;92.60;;;;;;4955974;28;20179;-78
2022/06/01 14:47:08;;;;;;;3.33;1.83;;;20.20;94.30;;;;;;4973931;28;20249;-77
2022/06/01 14:49:34;;;;;;;2.20;1.50;;;20.50;94.50;;;;;;4974312;28;20261;-78
2022/06/01 14:52:03;;;;;;;3.13;1.70;;;20.50;90.10;;;;;;4974210;28;20194;-78
2022/06/01 14:54:33;;;;;;;1.60;1.50;;;20.60;92.60;;;;;;4974409;28;20534;-77
2022/06/01 14:56:59;;;;;;;2.17;1.83;;;20.80;91.30;;;;;;4975395;28;21087;-76
2022/06/01 14:59:26;;;;;;;5.20;1.73;;;20.60;88.90;;;;;;4974803;28;20407;-79
2022/06/01 15:01:54;;;;;;;2.73;1.43;;;19.90;92.80;;;;;;4975657;28;20861;-78
2022/06/01 15:04:26;;;;;;;4.40;1.67;;;19.50;92.60;;;;;;4974094;28;20504;-78
2022/06/01 15:06:52;;;;;;;5.60;1.87;;;19.00;91.90;;;;;;4975178;28;20569;-77
2022/06/01 15:09:18;;;;;;;3.30;1.77;;;18.70;93.10;;;;;;4958834;28;20458;-78
2022/06/01 15:11:43;;;;;;;1.70;1.40;;;18.90;94.20;;;;;;4974656;28;20190;-77
2022/06/01 15:14:10;;;;;;;2.13;1.50;;;19.10;95.90;;;;;;4973595;28;20178;-79
2022/06/01 15:16:41;;;;;;;2.53;2.00;;;18.90;96.20;;;;;;4974765;28;20170;-80
2022/06/01 15:19:08;;;;;;;2.70;1.73;;;19.30;95.90;;;;;;4973848;28;20425;-78
2022/06/01 15:21:34;;;;;;;1.40;1.30;;;19.30;96.30;;;;;;4973870;28;20529;-78
2022/06/01 15:24:00;;;;;;;3.20;1.50;;;19.00;94.50;;;;;;4956508;28;20520;-79
2022/06/01 15:26:26;;;;;;;1.70;1.60;;;18.80;95.40;;;;;;4973860;28;20665;-79
2022/06/01 15:28:52;;;;;;;1.73;1.47;;;18.90;95.20;;;;;;4973706;28;20414;-79
2022/06/01 15:39:34;;;;;;;2.60;1.40;;;19.60;93.10;;;;;;4973625;28;20517;-77
2022/06/01 15:42:03;;;;;;;3.03;1.57;;;19.90;90.90;;;;;;4973320;28;20826;-78
2022/06/01 15:44:29;;;;;;;4.50;1.40;;;19.90;93.70;;;;;;4973579;28;20418;-79
2022/06/01 15:46:56;;;;;;;2.00;1.57;;;19.60;91.00;;;;;;4956127;28;20492;-78
2022/06/01 15:49:23;;;;;;;1.77;1.10;;;19.10;92.30;;;;;;4956414;28;20426;-79
2022/06/01 15:52:01;;;;;;;7.23;1.73;;;18.80;95.70;;;;;;4976085;28;20506;-80
2022/06/01 15:54:27;;;;;;;3.67;1.43;;;18.60;95.30;;;;;;4975446;28;20409;-79
2022/06/01 15:56:53;;;;;;;4.07;1.40;;;18.60;96.30;;;;;;4977235;28;20847;-80
2022/06/01 15:59:19;;;;;;;2.60;1.57;;;18.80;96.30;;;;;;4972319;28;20433;-81
2022/06/01 16:01:46;;;;;;;2.00;1.83;;;18.80;96.00;;;;;;4976052;28;20469;-80
2022/06/01 16:04:12;;;;;;;4.03;1.50;;;18.50;94.40;;;;;;4958042;28;20829;-79
2022/06/01 16:06:39;;;;;;;7.50;1.77;;;18.40;95.60;;;;;;4972972;28;20476;-77
2022/06/01 16:09:05;;;;;;;1.60;1.27;;;18.20;96.30;;;;;;4972996;28;20432;-78
2022/06/01 16:11:30;;;;;;;1.97;1.77;;;18.30;96.30;;;;;;4973573;28;20941;-79
2022/06/01 16:13:57;;;;;;;4.27;1.50;;;18.30;96.30;;;;;;4972500;28;20409;-78
2022/06/01 16:16:28;;;;;;;1.60;1.30;;;18.60;96.30;;;;;;4972779;28;20256;-77
2022/06/01 16:18:55;;;;;;;4.90;1.53;;;18.50;96.30;;;;;;4973051;28;20393;-77
2022/06/01 16:21:21;;;;;;;1.70;1.60;;;18.20;96.30;;;;;;4973455;28;20442;-78
2022/06/01 16:23:48;;;;;;;2.40;1.80;;;17.90;96.30;;;;;;4957294;28;20421;-80
2022/06/01 16:26:15;;;;;;;4.13;1.30;;;17.80;96.30;;;;;;4957264;28;20974;-80
2022/06/01 16:28:40;;;;;;;3.77;2.03;;;17.70;96.30;;;;;;4974046;28;20433;-80
2022/06/01 16:31:11;;;;;;;7.20;1.40;;;17.80;96.30;;;;;;4968524;28;20461;-78
2022/06/01 16:33:37;;;;;;;1.60;1.50;;;17.90;96.30;;;;;;4973091;28;20155;-80
2022/06/01 16:36:09;;;;;;;1.80;1.10;;;17.90;96.30;;;;;;4973140;28;20417;-76
2022/06/01 16:38:34;;;;;;;3.50;1.47;;;18.00;96.30;;;;;;4972946;28;20162;-76
2022/06/01 16:41:00;;;;;;;2.07;1.10;;;18.50;96.30;;;;;;4957970;28;20779;-77
2022/06/01 16:43:27;;;;;;;2.53;1.13;;;18.70;94.60;;;;;;4977265;28;20309;-78
2022/06/01 16:45:54;;;;;;;3.47;1.33;;;18.60;94.30;;;;;;4959514;28;20175;-77
2022/06/01 16:48:20;;;;;;;5.47;1.43;;;18.30;95.60;;;;;;4976465;28;20869;-77
2022/06/01 16:50:48;;;;;;;2.87;1.40;;;18.10;96.30;;;;;;4976742;28;20936;-79
2022/06/01 16:53:13;;;;;;;1.47;1.10;;;17.90;96.30;;;;;;4975065;28;20181;-77
2022/06/01 16:55:39;;;;;;;1.33;1.23;;;17.50;96.30;;;;;;4976308;28;20414;-77
2022/06/01 16:58:05;;;;;;;3.83;1.30;;;17.10;96.30;;;;;;4973356;28;20182;-77
2022/06/01 17:00:31;;;;;;;1.47;1.30;;;16.80;96.30;;;;;;4976275;28;20229;-77
2022/06/01 17:02:57;;;;;;;2.83;1.40;;;16.60;96.30;;;;;;4939843;28;20619;-77
2022/06/01 17:05:23;;;;;;;1.10;0.97;;;16.60;96.30;;;;;;4945485;28;20233;-77
2022/06/01 17:07:49;;;;;;;1.23;1.10;;;16.60;96.30;;;;;;4976225;28;20720;-78
2022/06/01 17:10:16;;;;;;;1.90;1.33;;;16.40;96.30;;;;;;4976095;28;20174;-78
2022/06/01 17:12:41;;;;;;;1.80;1.37;;;16.30;96.30;;;;;;4963330;28;20898;-78
2022/06/01 17:15:09;;;;;;;6.83;1.53;;;16.30;96.30;;;;;;4969212;28;20586;-77
2022/06/01 17:17:39;;;;;;;3.53;1.30;;;16.20;96.30;;;;;;4958598;28;20585;-80
2022/06/01 17:20:08;;;;;;;1.70;1.47;;;16.30;96.30;;;;;;4958442;28;20529;-79
2022/06/01 17:22:33;;;;;;;7.23;1.37;;;16.30;96.30;;;;;;4975868;28;20441;-76
2022/06/01 17:24:59;;;;;;;2.03;1.30;;;16.40;96.30;;;;;;4958628;28;20487;-77
2022/06/01 17:27:24;;;;;;;1.27;1.17;;;16.60;96.30;;;;;;4958255;28;20237;-80
2022/06/01 17:29:50;;;;;;;2.23;1.27;;;16.80;96.30;;;;;;4975473;28;20685;-76
2022/06/01 17:32:16;;;;;;;1.90;1.10;;;17.10;96.30;;;;;;4975629;28;20198;-76
2022/06/01 17:34:44;;;;;;;1.40;1.03;;;17.20;96.30;;;;;;4975683;28;20194;-76
2022/06/01 17:37:11;;;;;;;2.17;1.10;;;17.40;96.30;;;;;;4958164;28;20425;-77
2022/06/01 17:39:37;;;;;;;4.33;1.43;;;17.50;96.30;;;;;;4974973;28;20904;-77
2022/06/01 17:42:03;;;;;;;3.07;1.40;;;17.70;96.30;;;;;;4975381;28;20500;-77
2022/06/01 17:44:29;;;;;;;2.10;1.50;;;17.70;96.30;;;;;;4975565;28;20547;-77
2022/06/01 17:46:56;;;;;;;2.53;1.33;;;17.50;96.30;;;;;;4975371;28;20220;-77
2022/06/01 17:49:22;;;;;;;2.80;1.23;;;17.40;96.30;;;;;;4957140;28;20429;-78
2022/06/01 17:51:48;;;;;;;4.20;1.40;;;17.30;96.30;;;;;;4956831;28;20452;-79
2022/06/01 17:54:14;;;;;;;1.70;1.30;;;17.20;96.30;;;;;;4974848;28;21740;-79
2022/06/01 17:56:43;;;;;;;1.90;1.37;;;17.30;96.30;;;;;;4975185;28;20240;-79
2022/06/01 17:59:10;;;;;;;1.60;1.10;;;17.40;96.30;;;;;;4974612;28;20893;-77
2022/06/01 18:01:36;;;;;;;3.50;1.33;;;17.50;96.30;;;;;;4957507;28;20885;-77
2022/06/01 18:04:03;;;;;;;6.70;1.50;;;17.60;96.30;;;;;;4975178;28;20426;-79
2022/06/01 18:06:29;;;;;;;2.40;1.23;;;17.60;96.30;;;;;;4969922;28;20458;-76
2022/06/01 18:08:54;;;;;;;1.63;1.40;;;17.50;96.30;;;;;;4973461;28;20453;-78
2022/06/01 18:11:23;;;;;;;4.03;1.53;;;17.40;96.30;;;;;;4972455;28;20269;-76